createdAt,value
2019-04-03T00:01:09.362Z,98529.78
2019-04-03T00:03:38.755Z,98536.50
2019-04-03T00:06:08.164Z,98528.58
2019-04-03T00:08:37.542Z,98523.55
2019-04-03T00:11:09.404Z,98511.41
2019-04-03T00:13:41.524Z,98507.11
2019-04-03T00:16:09.530Z,98509.99
2019-04-03T00:18:38.907Z,98506.41
2019-04-03T00:21:08.333Z,98505.21
2019-04-03T00:23:37.723Z,98508.03
2019-04-03T00:26:07.084Z,98509.22
2019-04-03T00:28:36.486Z,98510.20
2019-04-03T00:31:05.820Z,98515.36
2019-04-03T00:33:35.554Z,98510.27
2019-04-03T00:36:04.990Z,98506.86
2019-04-03T00:38:34.488Z,98506.03
2019-04-03T00:41:03.797Z,98504.39
2019-04-03T00:43:33.177Z,98500.38
2019-04-03T00:46:02.680Z,98497.67
2019-04-03T00:48:33.207Z,98497.56
2019-04-03T00:51:03.340Z,98506.08
2019-04-03T00:53:33.277Z,98512.32
2019-04-03T00:56:03.285Z,98513.22
2019-04-03T00:58:39.889Z,98511.73
2019-04-03T01:01:11.851Z,98513.14
2019-04-03T01:03:41.648Z,98514.16
2019-04-03T01:06:11.139Z,98531.36
2019-04-03T01:08:40.502Z,98526.05
2019-04-03T01:11:09.878Z,98524.77
2019-04-03T01:13:39.310Z,98527.80
2019-04-03T01:16:08.687Z,98521.06
2019-04-03T01:18:38.063Z,98511.33
2019-04-03T01:21:07.694Z,98508.30
2019-04-03T01:23:38.048Z,98515.91
2019-04-03T01:26:09.314Z,98510.60
2019-04-03T01:28:41.436Z,98511.61
2019-04-03T01:31:09.829Z,98504.41
2019-04-03T01:33:39.194Z,98505.42
2019-04-03T01:36:08.570Z,98507.13
2019-04-03T01:38:38.424Z,98505.27
2019-04-03T01:41:07.866Z,98502.16
2019-04-03T01:43:37.593Z,98499.06
2019-04-03T01:46:06.964Z,98500.27
2019-04-03T01:48:36.381Z,98498.21
2019-04-03T01:51:05.755Z,98499.86
2019-04-03T01:53:35.453Z,98488.19
2019-04-03T01:56:05.270Z,98492.91
2019-04-03T01:58:36.501Z,98494.23
2019-04-03T02:01:07.926Z,98494.36
2019-04-03T02:03:37.370Z,98492.84
2019-04-03T02:06:06.874Z,98490.05
2019-04-03T02:08:36.185Z,98490.84
2019-04-03T02:11:06.319Z,98490.00
2019-04-03T02:13:54.977Z,98492.61
2019-04-03T02:16:24.356Z,98483.96
2019-04-03T02:18:55.469Z,98488.35
2019-04-03T02:21:27.285Z,98482.22
2019-04-03T02:23:56.107Z,98472.99
2019-04-03T02:26:25.484Z,98474.58
2019-04-03T02:28:54.846Z,98471.19
2019-04-03T02:31:24.390Z,98466.67
2019-04-03T02:33:53.840Z,98471.70
2019-04-03T02:36:23.180Z,98478.30
2019-04-03T02:38:53.718Z,98478.65
2019-04-03T02:41:23.643Z,98480.08
2019-04-03T02:43:53.310Z,98472.45
2019-04-03T02:46:22.690Z,98465.44
2019-04-03T02:48:52.038Z,98463.45
2019-04-03T02:51:21.586Z,98453.59
2019-04-03T02:53:51.310Z,98446.86
2019-04-03T02:56:21.043Z,98447.89
2019-04-03T02:58:53.583Z,98457.03
2019-04-03T03:01:21.889Z,98461.14
2019-04-03T03:03:51.283Z,98463.58
2019-04-03T03:06:20.714Z,98471.28
2019-04-03T03:08:51.466Z,98470.30
2019-04-03T03:11:24.543Z,98471.09
2019-04-03T03:13:53.500Z,98471.09
2019-04-03T03:16:23.062Z,98470.94
2019-04-03T03:18:52.647Z,98471.57
2019-04-03T03:21:22.849Z,98466.06
2019-04-03T03:23:55.197Z,98457.82
2019-04-03T03:26:24.225Z,98460.22
2019-04-03T03:28:54.086Z,98458.39
2019-04-03T03:31:57.615Z,98455.73
2019-04-03T03:34:00.512Z,98456.97
2019-04-03T03:36:28.262Z,98453.65
2019-04-03T03:38:59.113Z,98456.05
2019-04-03T03:41:28.885Z,98455.64
2019-04-03T03:43:58.993Z,98452.06
2019-04-03T03:46:29.534Z,98446.09
2019-04-03T03:48:59.706Z,98440.33
2019-04-03T03:51:31.919Z,98436.56
2019-04-03T03:54:03.591Z,98435.39
2019-04-03T03:56:33.949Z,98432.42
2019-04-03T03:59:04.489Z,98428.66
2019-04-03T04:01:34.370Z,98423.37
2019-04-03T04:04:04.405Z,98423.91
2019-04-03T04:06:35.772Z,98423.06
2019-04-03T04:09:08.447Z,98424.70
2019-04-03T04:11:38.204Z,98416.73
2019-04-03T04:14:07.741Z,98417.46
2019-04-03T04:16:38.307Z,98422.84
2019-04-03T04:19:08.783Z,98418.22
2019-04-03T04:21:42.312Z,98421.76
2019-04-03T04:24:10.009Z,98421.41
2019-04-03T04:26:40.102Z,98421.73
2019-04-03T04:29:11.329Z,98418.98
2019-04-03T04:31:43.346Z,98417.11
2019-04-03T04:34:11.976Z,98424.80
2019-04-03T04:36:41.606Z,98422.16
2019-04-03T04:39:10.990Z,98420.42
2019-04-03T04:41:40.344Z,98422.20
2019-04-03T04:44:10.445Z,98417.86
2019-04-03T04:46:40.045Z,98417.48
2019-04-03T04:49:09.504Z,98423.21
2019-04-03T04:51:39.123Z,98419.70
2019-04-03T04:54:08.493Z,98419.23
2019-04-03T04:56:38.452Z,98416.23
2019-04-03T04:59:07.931Z,98413.73
2019-04-03T05:01:37.259Z,98417.33
2019-04-03T05:04:06.625Z,98418.38
2019-04-03T05:06:35.983Z,98414.42
2019-04-03T05:09:07.786Z,98418.69
2019-04-03T05:11:39.088Z,98419.45
2019-04-03T05:14:08.513Z,98422.36
2019-04-03T05:16:37.948Z,98418.77
2019-04-03T05:19:10.449Z,98423.60
2019-04-03T05:21:38.708Z,98424.39
2019-04-03T05:24:12.682Z,98425.19
2019-04-03T05:26:39.488Z,98426.61
2019-04-03T05:29:09.198Z,98429.70
2019-04-03T05:31:39.362Z,98434.92
2019-04-03T05:34:09.035Z,98429.05
2019-04-03T05:36:39.352Z,98424.24
2019-04-03T05:39:09.181Z,98421.14
2019-04-03T05:41:38.991Z,98424.36
2019-04-03T05:44:08.890Z,98422.53
2019-04-03T05:46:38.235Z,98418.38
2019-04-03T05:49:07.993Z,98418.95
2019-04-03T05:51:38.688Z,98416.10
2019-04-03T05:54:08.388Z,98420.72
2019-04-03T05:56:37.806Z,98420.05
2019-04-03T05:59:07.163Z,98421.69
2019-04-03T06:01:36.779Z,98426.88
2019-04-03T06:04:06.246Z,98423.36
2019-04-03T06:06:36.760Z,98423.00
2019-04-03T06:09:08.132Z,98415.97
2019-04-03T06:11:39.848Z,98417.89
2019-04-03T06:14:09.723Z,98427.05
2019-04-03T06:16:39.096Z,98426.73
2019-04-03T06:19:08.467Z,98429.80
2019-04-03T06:21:37.832Z,98436.75
2019-04-03T06:24:07.610Z,98434.98
2019-04-03T06:26:38.035Z,98426.06
2019-04-03T06:29:08.232Z,98426.92
2019-04-03T06:31:37.577Z,98425.96
2019-04-03T06:34:07.984Z,98415.14
2019-04-03T06:36:37.492Z,98411.56
2019-04-03T06:39:08.749Z,98416.80
2019-04-03T06:41:38.117Z,98417.04
2019-04-03T06:44:07.617Z,98421.42
2019-04-03T06:46:37.726Z,98423.58
2019-04-03T06:49:08.565Z,98424.16
2019-04-03T06:51:38.347Z,98432.06
2019-04-03T06:54:08.322Z,98426.98
2019-04-03T06:56:40.128Z,98429.88
2019-04-03T06:59:09.432Z,98429.55
2019-04-03T07:01:38.821Z,98421.98
2019-04-03T07:04:08.178Z,98418.93
2019-04-03T07:06:37.552Z,98415.86
2019-04-03T07:09:21.059Z,98423.14
2019-04-03T07:11:39.527Z,98419.87
2019-04-03T07:14:09.115Z,98421.33
2019-04-03T07:16:38.971Z,98409.10
2019-04-03T07:19:08.692Z,98407.02
2019-04-03T07:21:38.436Z,98419.99
2019-04-03T07:24:07.794Z,98414.63
2019-04-03T07:26:37.165Z,98423.82
2019-04-03T07:29:06.648Z,98412.41
2019-04-03T07:31:36.286Z,98405.52
2019-04-03T07:34:05.699Z,98412.48
2019-04-03T07:36:35.399Z,98406.71
2019-04-03T07:39:10.905Z,98419.97
2019-04-03T07:41:41.093Z,98431.34
2019-04-03T07:44:10.334Z,98438.59
2019-04-03T07:46:39.712Z,98440.05
2019-04-03T07:49:09.884Z,98449.86
2019-04-03T07:51:39.840Z,98456.24
2019-04-03T07:54:09.422Z,98453.78
2019-04-03T07:56:39.086Z,98462.56
2019-04-03T07:59:08.420Z,98455.64
2019-04-03T08:01:38.787Z,98449.80
2019-04-03T08:04:08.892Z,98435.72
2019-04-03T08:06:38.250Z,98428.72
2019-04-03T08:09:10.385Z,98427.30
2019-04-03T08:11:39.806Z,98422.27
2019-04-03T08:14:09.963Z,98427.77
2019-04-03T08:16:42.120Z,98428.97
2019-04-03T08:19:11.032Z,98431.46
2019-04-03T08:21:40.398Z,98433.64
2019-04-03T08:24:09.774Z,98445.23
2019-04-03T08:26:39.205Z,98439.64
2019-04-03T08:29:08.591Z,98433.49
2019-04-03T08:31:37.955Z,98421.02
2019-04-03T08:34:15.514Z,98422.48
2019-04-03T08:36:39.808Z,98423.47
2019-04-03T08:39:09.514Z,98419.36
2019-04-03T08:41:39.594Z,98411.29
2019-04-03T08:44:09.278Z,98410.75
2019-04-03T08:46:38.752Z,98409.33
2019-04-03T08:49:08.474Z,98422.44
2019-04-03T08:51:37.917Z,98432.91
2019-04-03T08:54:09.793Z,98441.10
2019-04-03T08:56:38.631Z,98439.42
2019-04-03T08:59:08.237Z,98439.27
2019-04-03T09:01:37.665Z,98427.30
2019-04-03T09:04:07.038Z,98434.80
2019-04-03T09:06:36.413Z,98427.79
2019-04-03T09:09:10.369Z,98436.17
2019-04-03T09:11:39.798Z,98436.09
2019-04-03T09:14:09.205Z,98440.48
2019-04-03T09:16:38.975Z,98446.60
2019-04-03T09:19:10.220Z,98438.58
2019-04-03T09:21:39.467Z,98442.39
2019-04-03T09:24:08.849Z,98435.98
2019-04-03T09:26:38.331Z,98431.34
2019-04-03T09:29:08.096Z,98428.64
2019-04-03T09:31:37.466Z,98426.77
2019-04-03T09:34:06.930Z,98421.44
2019-04-03T09:36:36.358Z,98416.83
2019-04-03T09:39:12.914Z,98402.58
2019-04-03T09:41:41.271Z,98399.59
2019-04-03T09:44:10.634Z,98395.63
2019-04-03T09:46:40.009Z,98389.52
2019-04-03T09:49:09.381Z,98380.20
2019-04-03T09:51:38.765Z,98374.74
2019-04-03T09:54:08.265Z,98383.84
2019-04-03T09:56:40.630Z,98390.03
2019-04-03T09:59:08.695Z,98395.75
2019-04-03T10:01:38.270Z,98395.05
2019-04-03T10:04:09.066Z,98394.16
2019-04-03T10:06:39.035Z,98381.26
2019-04-03T10:09:11.756Z,98391.16
2019-04-03T10:11:40.423Z,98384.05
2019-04-03T10:14:09.780Z,98373.02
2019-04-03T10:16:39.156Z,98374.97
2019-04-03T10:19:09.111Z,98375.16
2019-04-03T10:21:38.627Z,98370.02
2019-04-03T10:24:07.997Z,98377.10
2019-04-03T10:26:39.323Z,98373.78
2019-04-03T10:29:08.481Z,98365.95
2019-04-03T10:31:38.316Z,98372.30
2019-04-03T10:34:07.642Z,98366.77
2019-04-03T10:36:37.047Z,98367.72
2019-04-03T10:39:10.713Z,98359.42
2019-04-03T10:41:42.681Z,98354.64
2019-04-03T10:44:12.104Z,98355.20
2019-04-03T10:46:41.480Z,98355.83
2019-04-03T10:49:10.848Z,98358.21
2019-04-03T10:51:41.585Z,98360.45
2019-04-03T10:54:11.544Z,98360.09
2019-04-03T10:56:40.917Z,98357.83
2019-04-03T10:59:13.576Z,98357.38
2019-04-03T11:01:41.382Z,98353.74
2019-04-03T11:04:11.074Z,98346.26
2019-04-03T11:06:40.397Z,98345.48
2019-04-03T11:09:10.370Z,98346.91
2019-04-03T11:11:42.624Z,98340.91
2019-04-03T11:14:10.921Z,98341.34
2019-04-03T11:16:40.609Z,98335.20
2019-04-03T11:19:10.212Z,98333.83
2019-04-03T11:21:39.811Z,98332.35
2019-04-03T11:24:09.370Z,98334.95
2019-04-03T11:26:39.850Z,98323.00
2019-04-03T11:29:10.409Z,98311.45
2019-04-03T11:31:42.238Z,98314.02
2019-04-03T11:34:11.600Z,98314.49
2019-04-03T11:36:40.975Z,98313.20
2019-04-03T11:39:15.193Z,98318.69
2019-04-03T11:41:42.390Z,98313.22
2019-04-03T11:44:11.736Z,98308.94
2019-04-03T11:46:41.153Z,98302.91
2019-04-03T11:49:10.534Z,98302.82
2019-04-03T11:51:40.247Z,98304.54
2019-04-03T11:54:09.609Z,98303.78
2019-04-03T11:56:39.123Z,98308.37
2019-04-03T11:59:08.574Z,98316.66
2019-04-03T12:01:37.885Z,98315.06
2019-04-03T12:04:07.377Z,98303.13
2019-04-03T12:06:36.805Z,98297.92
2019-04-03T12:09:08.344Z,98297.64
2019-04-03T12:11:39.132Z,98313.70
2019-04-03T12:14:08.858Z,98311.68
2019-04-03T12:16:38.236Z,98322.78
2019-04-03T12:19:07.609Z,98318.16
2019-04-03T12:21:36.982Z,98316.14
2019-04-03T12:24:06.356Z,98303.16
2019-04-03T12:26:35.727Z,98284.22
2019-04-03T12:29:07.516Z,98279.61
2019-04-03T12:31:36.802Z,98281.34
2019-04-03T12:34:06.822Z,98278.77
2019-04-03T12:36:36.855Z,98283.80
2019-04-03T12:39:11.536Z,98276.52
2019-04-03T12:41:43.112Z,98263.29
2019-04-03T12:44:12.372Z,98259.45
2019-04-03T12:46:41.848Z,98254.13
2019-04-03T12:49:11.444Z,98245.38
2019-04-03T12:51:41.168Z,98226.75
2019-04-03T12:54:12.791Z,98224.14
2019-04-03T12:56:41.651Z,98227.25
2019-04-03T12:59:11.029Z,98251.71
2019-04-03T13:01:40.505Z,98254.91
2019-04-03T13:04:09.881Z,98262.69
2019-04-03T13:06:41.905Z,98263.58
2019-04-03T13:09:11.855Z,98258.86
2019-04-03T13:11:41.466Z,98256.44
2019-04-03T13:14:22.874Z,98249.90
2019-04-03T13:16:42.631Z,98248.08
2019-04-03T13:19:14.881Z,98251.62
2019-04-03T13:21:43.806Z,98246.80
2019-04-03T13:24:16.071Z,98231.21
2019-04-03T13:26:44.816Z,98215.80
2019-04-03T13:29:14.191Z,98205.28
2019-04-03T13:31:44.479Z,98213.44
2019-04-03T13:34:14.650Z,98224.47
2019-04-03T13:36:44.673Z,98223.11
2019-04-03T13:39:14.349Z,98230.48
2019-04-03T13:41:43.798Z,98229.37
2019-04-03T13:44:13.630Z,98235.09
2019-04-03T13:46:43.115Z,98231.75
2019-04-03T13:49:12.764Z,98232.06
2019-04-03T13:51:42.114Z,98230.41
2019-04-03T13:54:11.548Z,98228.30
2019-04-03T13:56:43.054Z,98231.71
2019-04-03T13:59:11.964Z,98237.18
2019-04-03T14:01:41.802Z,98236.06
2019-04-03T14:04:11.570Z,98232.37
2019-04-03T14:06:41.015Z,98232.11
2019-04-03T14:09:11.817Z,98229.33
2019-04-03T14:11:42.118Z,98229.34
2019-04-03T14:14:13.374Z,98230.19
2019-04-03T14:16:43.336Z,98226.77
2019-04-03T14:19:13.330Z,98218.88
2019-04-03T14:21:42.886Z,98220.18
2019-04-03T14:24:12.670Z,98210.64
2019-04-03T14:26:44.410Z,98209.59
2019-04-03T14:29:13.497Z,98210.87
2019-04-03T14:31:43.379Z,98223.48
2019-04-03T14:34:12.930Z,98219.91
2019-04-03T14:36:42.593Z,98211.70
2019-04-03T14:39:12.360Z,98210.50
2019-04-03T14:41:42.076Z,98210.83
2019-04-03T14:44:11.857Z,98202.80
2019-04-03T14:46:41.416Z,98190.52
2019-04-03T14:49:11.003Z,98178.94
2019-04-03T14:51:41.566Z,98186.62
2019-04-03T14:54:11.872Z,98183.51
2019-04-03T14:56:41.223Z,98191.52
2019-04-03T14:59:12.701Z,98185.59
2019-04-03T15:01:42.057Z,98170.95
2019-04-03T15:04:11.532Z,98174.12
2019-04-03T15:06:41.326Z,98187.08
2019-04-03T15:09:10.642Z,98204.11
2019-04-03T15:11:40.311Z,98205.23
2019-04-03T15:14:09.656Z,98206.65
2019-04-03T15:16:39.028Z,98214.53
2019-04-03T15:19:08.735Z,98214.27
2019-04-03T15:21:38.799Z,98219.20
2019-04-03T15:24:08.941Z,98214.86
2019-04-03T15:26:39.317Z,98218.94
2019-04-03T15:29:08.685Z,98213.38
2019-04-03T15:31:38.098Z,98208.44
2019-04-03T15:34:07.432Z,98192.73
2019-04-03T15:36:37.163Z,98193.17
2019-04-03T15:39:10.808Z,98195.36
2019-04-03T15:41:40.259Z,98206.62
2019-04-03T15:44:09.723Z,98205.39
2019-04-03T15:46:39.415Z,98203.94
2019-04-03T15:49:08.893Z,98217.74
2019-04-03T15:51:39.819Z,98219.30
2019-04-03T15:54:09.418Z,98216.08
2019-04-03T15:56:39.065Z,98206.75
2019-04-03T15:59:10.903Z,98204.50
2019-04-03T16:01:40.531Z,98203.47
2019-04-03T16:04:10.299Z,98201.71
2019-04-03T16:06:40.196Z,98196.79
2019-04-03T16:09:11.245Z,98183.02
2019-04-03T16:11:40.931Z,98173.34
2019-04-03T16:14:10.321Z,98172.95
2019-04-03T16:16:40.848Z,98171.18
2019-04-03T16:19:10.965Z,98171.78
2019-04-03T16:21:41.493Z,98162.51
2019-04-03T16:24:13.219Z,98164.34
2019-04-03T16:26:42.165Z,98165.95
2019-04-03T16:29:12.018Z,98163.63
2019-04-03T16:31:41.710Z,98160.00
2019-04-03T16:34:13.132Z,98165.66
2019-04-03T16:36:42.217Z,98162.84
2019-04-03T16:39:11.822Z,98154.88
2019-04-03T16:41:44.091Z,98151.92
2019-04-03T16:44:12.292Z,98156.95
2019-04-03T16:46:42.139Z,98146.34
2019-04-03T16:49:11.491Z,98146.38
2019-04-03T16:51:41.263Z,98144.70
2019-04-03T16:54:12.607Z,98131.15
2019-04-03T16:56:42.658Z,98132.55
2019-04-03T16:59:12.237Z,98150.17
2019-04-03T17:01:44.350Z,98153.77
2019-04-03T17:04:23.667Z,98164.68
2019-04-03T17:06:45.055Z,98165.70
2019-04-03T17:09:15.144Z,98169.59
2019-04-03T17:11:48.415Z,98172.92
2019-04-03T17:14:16.067Z,98183.19
2019-04-03T17:16:46.368Z,98186.58
2019-04-03T17:19:18.184Z,98188.95
2019-04-03T17:21:48.185Z,98201.72
2019-04-03T17:24:18.603Z,98208.27
2019-04-03T17:26:53.898Z,98201.03
2019-04-03T17:29:19.584Z,98193.31
2019-04-03T17:31:49.361Z,98190.62
2019-04-03T17:34:18.720Z,98185.66
2019-04-03T17:36:48.086Z,98190.09
2019-04-03T17:39:17.881Z,98196.43
2019-04-03T17:41:47.780Z,98205.54
2019-04-03T17:44:17.161Z,98217.61
2019-04-03T17:46:48.717Z,98207.14
2019-04-03T17:49:17.944Z,98196.63
2019-04-03T17:51:47.311Z,98187.83
2019-04-03T17:54:16.682Z,98192.30
2019-04-03T17:56:46.051Z,98191.02
2019-04-03T17:59:18.169Z,98190.00
2019-04-03T18:01:46.512Z,98194.80
2019-04-03T18:04:15.888Z,98180.41
2019-04-03T18:06:46.687Z,98171.75
2019-04-03T18:09:16.335Z,98176.39
2019-04-03T18:11:47.510Z,98188.13
2019-04-03T18:14:16.965Z,98204.84
2019-04-03T18:16:46.331Z,98201.00
2019-04-03T18:19:15.705Z,98212.32
2019-04-03T18:21:45.069Z,98216.52
2019-04-03T18:24:14.690Z,98219.75
2019-04-03T18:26:45.059Z,98228.30
2019-04-03T18:29:14.407Z,98231.84
2019-04-03T18:31:44.697Z,98223.72
2019-04-03T18:34:14.521Z,98224.27
2019-04-03T18:36:43.907Z,98233.68
2019-04-03T18:39:13.429Z,98235.58
2019-04-03T18:41:42.810Z,98227.61
2019-04-03T18:44:21.587Z,98227.73
2019-04-03T18:46:43.247Z,98230.66
2019-04-03T18:49:12.621Z,98236.73
2019-04-03T18:51:41.984Z,98233.31
2019-04-03T18:54:11.663Z,98240.52
2019-04-03T18:56:41.419Z,98243.02
2019-04-03T18:59:10.953Z,98252.90
2019-04-03T19:01:40.360Z,98261.62
2019-04-03T19:04:09.693Z,98267.11
2019-04-03T19:06:39.061Z,98270.95
2019-04-03T19:09:10.211Z,98272.63
2019-04-03T19:11:41.000Z,98269.20
2019-04-03T19:14:11.163Z,98265.25
2019-04-03T19:16:46.360Z,98252.64
2019-04-03T19:19:12.850Z,98243.61
2019-04-03T19:21:43.174Z,98241.11
2019-04-03T19:24:12.550Z,98238.19
2019-04-03T19:26:41.914Z,98237.85
2019-04-03T19:29:11.498Z,98234.81
2019-04-03T19:31:41.219Z,98241.20
2019-04-03T19:34:10.845Z,98242.48
2019-04-03T19:36:42.968Z,98242.78
2019-04-03T19:39:11.313Z,98241.88
2019-04-03T19:41:41.010Z,98242.71
2019-04-03T19:44:11.762Z,98238.72
2019-04-03T19:46:41.140Z,98246.95
2019-04-03T19:49:10.500Z,98235.50
2019-04-03T19:51:40.116Z,98234.17
2019-04-03T19:54:09.474Z,98236.28
2019-04-03T19:56:38.846Z,98223.66
2019-04-03T19:59:08.216Z,98217.64
2019-04-03T20:01:39.019Z,98224.41
2019-04-03T20:04:08.847Z,98231.72
2019-04-03T20:06:38.487Z,98232.83
2019-04-03T20:09:10.244Z,98239.28
2019-04-03T20:11:39.635Z,98244.28
2019-04-03T20:14:11.318Z,98252.28
2019-04-03T20:16:40.386Z,98263.22
2019-04-03T20:19:09.801Z,98249.11
2019-04-03T20:21:39.184Z,98254.86
2019-04-03T20:24:08.790Z,98254.20
2019-04-03T20:26:38.235Z,98255.53
2019-04-03T20:29:07.694Z,98255.05
2019-04-03T20:31:37.203Z,98257.20
2019-04-03T20:34:06.512Z,98258.66
2019-04-03T20:36:35.876Z,98264.13
2019-04-03T20:39:08.817Z,98262.14
2019-04-03T20:41:38.549Z,98263.94
2019-04-03T20:44:07.946Z,98246.87
2019-04-03T20:46:37.559Z,98241.59
2019-04-03T20:49:06.917Z,98246.11
2019-04-03T20:51:37.988Z,98239.01
2019-04-03T20:54:07.606Z,98224.34
2019-04-03T20:56:36.980Z,98223.16
2019-04-03T20:59:06.412Z,98217.41
2019-04-03T21:01:36.112Z,98204.55
2019-04-03T21:04:05.603Z,98203.14
2019-04-03T21:06:37.355Z,98200.65
2019-04-03T21:09:08.053Z,98196.65
2019-04-03T21:11:37.440Z,98206.20
2019-04-03T21:14:06.803Z,98208.83
2019-04-03T21:16:36.693Z,98200.66
2019-04-03T21:19:06.556Z,98199.20
2019-04-03T21:21:35.945Z,98198.75
2019-04-03T21:24:05.451Z,98206.46
2019-04-03T21:26:37.630Z,98215.80
2019-04-03T21:29:05.921Z,98215.53
2019-04-03T21:31:35.393Z,98221.22
2019-04-03T21:34:04.737Z,98229.06
2019-04-03T21:36:34.125Z,98216.11
2019-04-03T21:39:05.503Z,98197.43
2019-04-03T21:41:34.870Z,98194.25
2019-04-03T21:44:04.302Z,98194.75
2019-04-03T21:46:33.673Z,98201.84
2019-04-03T21:49:03.033Z,98204.03
2019-04-03T21:51:32.387Z,98216.19
2019-04-03T21:54:01.760Z,98220.20
2019-04-03T21:56:32.707Z,98230.47
2019-04-03T21:59:02.215Z,98240.14
2019-04-03T22:01:31.822Z,98243.81
2019-04-03T22:04:01.201Z,98237.55
2019-04-03T22:06:30.775Z,98230.55
2019-04-03T22:09:00.726Z,98230.80
2019-04-03T22:11:30.160Z,98211.78
2019-04-03T22:13:59.600Z,98200.23
2019-04-03T22:16:28.963Z,98191.80
2019-04-03T22:18:58.327Z,98190.64
2019-04-03T22:21:27.683Z,98181.68
2019-04-03T22:23:57.358Z,98206.17
2019-04-03T22:26:26.721Z,98220.16
2019-04-03T22:28:56.087Z,98227.21
2019-04-03T22:31:25.570Z,98231.64
2019-04-03T22:33:54.943Z,98232.21
2019-04-03T22:36:24.550Z,98238.46
2019-04-03T22:38:53.921Z,98235.88
2019-04-03T22:41:23.286Z,98231.20
2019-04-03T22:43:52.662Z,98214.83
2019-04-03T22:46:22.658Z,98220.03
2019-04-03T22:48:51.991Z,98215.23
2019-04-03T22:51:21.364Z,98193.45
2019-04-03T22:53:50.975Z,98202.14
2019-04-03T22:56:20.340Z,98215.84
2019-04-03T22:58:52.533Z,98211.69
2019-04-03T23:01:20.793Z,98193.70
2019-04-03T23:03:50.169Z,98195.41
2019-04-03T23:06:19.782Z,98188.56
2019-04-03T23:08:49.165Z,98184.41
2019-04-03T23:11:18.593Z,98172.98
2019-04-03T23:13:48.088Z,98168.38
2019-04-03T23:16:17.681Z,98167.56
2019-04-03T23:18:47.514Z,98170.86
2019-04-03T23:21:16.887Z,98172.13
2019-04-03T23:23:46.265Z,98165.59
2019-04-03T23:26:15.871Z,98160.08
2019-04-03T23:28:45.474Z,98153.69
2019-04-03T23:31:14.830Z,98137.19
2019-04-03T23:33:47.545Z,98141.64
2019-04-03T23:36:15.530Z,98156.98
2019-04-03T23:38:44.884Z,98152.19
2019-04-03T23:41:14.289Z,98154.11
2019-04-03T23:43:43.664Z,98148.37
2019-04-03T23:46:14.722Z,98140.87
2019-04-03T23:48:46.989Z,98142.44
2019-04-03T23:51:23.168Z,98149.76
2019-04-03T23:53:47.656Z,98136.89
2019-04-03T23:56:17.030Z,98135.98
2019-04-03T23:58:46.372Z,98141.78
